Time;durP1;ratioP1;P1;durP2;ratioP2;P2;SDS_P1;SDS_P2;PMS_P1;PMS_P2;Temp;Humidity;BMP_temperature;BMP_pressure;BME280_temperature;BME280_humidity;BME280_pressure;Samples;Min_cycle;Max_cycle;Signal;HPM_P1;HPM_P2
2021/07/21 00:00:16;;;;;;;3.57;3.27;;;;;;;22.04;100.00;97812.53;4971146;28;20318;-65
2021/07/21 00:02:43;;;;;;;3.50;3.20;;;;;;;22.28;100.00;97850.03;4968765;28;20298;-67
2021/07/21 00:05:10;;;;;;;3.30;3.00;;;;;;;22.29;100.00;97862.00;4971519;28;20646;-65
2021/07/21 00:07:37;;;;;;;3.47;3.17;;;;;;;22.29;100.00;97848.34;4971260;28;20294;-67
2021/07/21 00:10:05;;;;;;;5.57;3.13;;;;;;;22.29;100.00;97858.59;4970991;28;20223;-66
2021/07/21 00:15:18;;;;;;;3.33;3.03;;;;;;;22.23;100.00;97861.78;4968984;28;20286;-67
2021/07/21 00:17:45;;;;;;;3.63;3.33;;;;;;;22.30;100.00;97876.56;4970647;28;20957;-66
2021/07/21 00:20:12;;;;;;;3.80;3.27;;;;;;;21.58;100.00;97744.50;4970903;28;20337;-69
2021/07/21 00:22:45;;;;;;;3.70;3.40;;;;;;;22.29;100.00;97869.66;4970828;28;20242;-64
2021/07/21 00:25:15;;;;;;;3.30;3.00;;;;;;;22.29;100.00;97866.25;4970663;28;20658;-65
2021/07/21 00:27:42;;;;;;;3.30;3.00;;;;;;;22.30;100.00;97870.56;4969437;28;20203;-68
2021/07/21 00:30:11;;;;;;;3.40;3.10;;;;;;;22.29;100.00;97861.13;4970922;28;20269;-66
2021/07/21 00:32:37;;;;;;;5.37;3.00;;;;;;;22.07;100.00;97827.97;4970681;28;20235;-66
2021/07/21 00:35:06;;;;;;;3.67;3.37;;;;;;;22.29;100.00;97862.00;4968006;28;20255;-66
2021/07/21 00:37:32;;;;;;;4.13;3.00;;;;;;;22.29;100.00;97856.88;4970301;28;20278;-66
2021/07/21 00:39:59;;;;;;;3.60;3.30;;;;;;;22.28;100.00;97860.25;4966298;28;21015;-67
2021/07/21 00:42:25;;;;;;;4.00;3.37;;;;;;;22.26;100.00;97854.22;4968467;28;20204;-67
2021/07/21 00:44:53;;;;;;;3.43;3.13;;;;;;;22.26;100.00;97856.78;4969035;28;20282;-64
2021/07/21 00:47:20;;;;;;;3.60;3.30;;;;;;;21.23;100.00;97688.78;4968903;28;20203;-69
2021/07/21 00:49:46;;;;;;;4.37;3.33;;;;;;;22.26;100.00;97863.59;4970361;28;20282;-63
2021/07/21 00:52:13;;;;;;;3.93;3.53;;;;;;;22.24;100.00;97858.44;4969023;28;20295;-65
2021/07/21 00:54:40;;;;;;;3.47;3.17;;;;;;;21.65;100.00;97755.81;4970203;28;20227;-66
2021/07/21 00:57:07;;;;;;;3.63;3.27;;;;;;;22.06;100.00;97822.00;4951326;28;20203;-65
2021/07/21 00:59:34;;;;;;;3.63;3.33;;;;;;;22.23;100.00;97855.81;4968117;28;20259;-66
2021/07/21 01:02:02;;;;;;;3.50;3.20;;;;;;;21.06;100.00;97651.59;4968070;28;20678;-65
2021/07/21 01:04:32;;;;;;;4.07;3.30;;;;;;;22.22;100.00;97856.63;4963126;28;20206;-66
2021/07/21 01:06:59;;;;;;;3.60;3.30;;;;;;;22.21;100.00;97858.34;4968716;28;20345;-63
2021/07/21 01:09:27;;;;;;;3.50;3.20;;;;;;;21.78;100.00;97780.09;4968269;28;20278;-63
2021/07/21 01:11:58;;;;;;;3.80;3.20;;;;;;;22.21;100.00;97855.78;4951053;28;20298;-66
2021/07/21 01:14:42;;;;;;;3.60;3.30;;;;;;;21.29;100.00;97694.09;4966658;28;20255;-68
2021/07/21 01:17:13;;;;;;;3.67;3.27;;;;;;;22.22;100.00;97854.94;4965357;28;20644;-65
2021/07/21 01:20:14;;;;;;;3.70;3.40;;;;;;;22.22;100.00;97860.06;4966579;28;20227;-66
2021/07/21 01:22:42;;;;;;;3.50;3.20;;;;;;;22.24;100.00;97857.56;4967898;28;20266;-65
2021/07/21 01:25:14;;;;;;;3.77;3.20;;;;;;;22.25;100.00;97860.16;4967435;28;20206;-65
2021/07/21 01:27:47;;;;;;;3.40;3.10;;;;;;;22.26;100.00;97856.78;4967774;28;20236;-64
2021/07/21 01:30:31;;;;;;;6.17;3.80;;;;;;;22.13;100.00;97833.28;4968328;28;20310;-66
2021/07/21 01:33:01;;;;;;;4.87;3.20;;;;;;;21.94;100.00;97811.38;4968290;28;20645;-65
2021/07/21 01:35:58;;;;;;;3.40;3.10;;;;;;;22.28;100.00;97850.03;4968827;28;20302;-65
2021/07/21 01:38:31;;;;;;;3.10;2.90;;;;;;;22.08;100.00;97827.19;4958189;28;20242;-66
2021/07/21 01:40:59;;;;;;;3.40;3.10;;;;;;;22.20;100.00;97837.81;4951703;28;21744;-65
2021/07/21 01:43:30;;;;;;;4.00;3.20;;;;;;;22.03;100.00;97805.69;4966568;28;20300;-65
2021/07/21 01:45:58;;;;;;;3.13;2.83;;;;;;;22.14;100.00;97830.78;4953150;28;20195;-65
2021/07/21 01:48:26;;;;;;;2.93;2.73;;;;;;;21.75;100.00;97760.41;4966591;28;20291;-65
2021/07/21 01:50:54;;;;;;;3.67;3.13;;;;;;;22.19;100.00;97843.72;4966458;28;20274;-65
2021/07/21 01:53:21;;;;;;;4.47;3.37;;;;;;;21.57;100.00;97729.09;4967351;28;20239;-65
2021/07/21 01:55:47;;;;;;;2.90;2.60;;;;;;;22.15;100.00;97829.09;4951830;28;20311;-65
2021/07/21 01:58:14;;;;;;;3.37;3.07;;;;;;;22.08;100.00;97817.78;4953611;28;20235;-68
2021/07/21 02:00:41;;;;;;;3.33;3.03;;;;;;;22.33;100.00;97852.72;4967652;28;20263;-66
2021/07/21 02:03:08;;;;;;;3.50;3.20;;;;;;;22.33;100.00;97856.16;4968033;28;20204;-65
2021/07/21 02:05:35;;;;;;;3.27;2.97;;;;;;;22.34;100.00;97852.78;4967820;28;20242;-66
2021/07/21 02:08:02;;;;;;;3.27;3.00;;;;;;;22.19;100.00;97821.56;4967106;28;20295;-63
2021/07/21 02:10:30;;;;;;;3.13;2.83;;;;;;;22.36;100.00;97852.81;4951621;28;20250;-66
2021/07/21 02:13:10;;;;;;;3.20;3.00;;;;;;;22.35;100.00;97846.81;4964988;28;20232;-67
2021/07/21 02:15:36;;;;;;;3.40;3.10;;;;;;;22.37;100.00;97852.88;4967829;28;20306;-65
2021/07/21 02:18:03;;;;;;;3.20;3.00;;;;;;;22.22;100.00;97828.47;4966829;28;20322;-67
2021/07/21 02:20:30;;;;;;;3.63;3.33;;;;;;;22.37;100.00;97857.09;4965596;28;20311;-66
2021/07/21 02:22:57;;;;;;;3.37;3.07;;;;;;;22.37;100.00;97849.44;4969152;28;20239;-65
2021/07/21 02:25:25;;;;;;;3.40;3.10;;;;;;;22.38;100.00;97846.91;4967215;28;20231;-66
2021/07/21 02:27:51;;;;;;;3.50;3.20;;;;;;;21.31;100.00;97666.91;4968248;28;20685;-66
2021/07/21 02:30:18;;;;;;;3.50;3.20;;;;;;;22.38;100.00;97852.03;4968844;28;20659;-65
2021/07/21 02:32:50;;;;;;;3.50;3.20;;;;;;;21.66;100.00;97727.72;4968263;28;20294;-65
2021/07/21 02:35:20;;;;;;;3.20;3.00;;;;;;;22.39;100.00;97863.16;4965862;28;20342;-65
2021/07/21 02:37:50;;;;;;;3.30;3.00;;;;;;;22.40;100.00;97859.75;4967253;28;20278;-65
2021/07/21 02:40:17;;;;;;;3.10;2.90;;;;;;;22.06;100.00;97795.53;4968278;28;20263;-65
2021/07/21 02:42:44;;;;;;;3.10;2.90;;;;;;;22.40;100.00;97849.53;4956157;28;20238;-65
2021/07/21 02:45:11;;;;;;;3.50;3.20;;;;;;;22.32;100.00;97835.63;4965313;28;20242;-65
2021/07/21 02:47:39;;;;;;;3.17;2.80;;;;;;;22.39;100.00;97853.78;4965497;28;20692;-66
2021/07/21 02:50:06;;;;;;;3.40;3.07;;;;;;;22.00;100.00;97792.78;4968129;28;20333;-64
2021/07/21 02:52:35;;;;;;;3.40;3.10;;;;;;;22.25;100.00;97841.38;4966897;28;20729;-65
2021/07/21 02:55:18;;;;;;;2.97;2.67;;;;;;;22.40;100.00;97860.66;4951996;28;20310;-64
2021/07/21 02:57:54;;;;;;;4.03;3.57;;;;;;;22.40;100.00;97865.75;4966141;28;20656;-65
2021/07/21 03:00:22;;;;;;;3.27;2.97;;;;;;;22.41;100.00;97866.66;4966701;28;20265;-64
2021/07/21 03:02:49;;;;;;;3.33;2.93;;;;;;;22.41;100.00;97864.09;4967852;28;20294;-65
2021/07/21 03:05:17;;;;;;;3.83;3.50;;;;;;;22.40;100.00;97860.66;4951130;28;20258;-67
2021/07/21 03:07:46;;;;;;;4.13;2.83;;;;;;;22.41;100.00;97869.22;4967794;28;20491;-66
2021/07/21 03:10:13;;;;;;;3.50;3.10;;;;;;;22.29;100.00;97846.63;4966459;28;20310;-68
2021/07/21 03:12:41;;;;;;;3.23;2.90;;;;;;;22.40;100.00;97863.22;4965049;28;20738;-65
2021/07/21 03:15:13;;;;;;;3.33;3.03;;;;;;;22.41;100.00;97862.38;4967092;28;20300;-65
2021/07/21 03:17:40;;;;;;;3.00;2.80;;;;;;;22.41;100.00;97864.94;4948666;28;20234;-66
2021/07/21 03:20:08;;;;;;;3.23;2.93;;;;;;;22.42;100.00;97873.50;4949040;28;20227;-66
2021/07/21 03:22:36;;;;;;;3.43;3.10;;;;;;;22.42;100.00;97863.25;4965161;28;20291;-65
2021/07/21 03:25:04;;;;;;;4.03;3.20;;;;;;;22.40;100.00;97868.34;4966504;28;20635;-65
2021/07/21 03:27:31;;;;;;;4.03;3.10;;;;;;;22.41;100.00;97874.34;4966583;28;20269;-63
2021/07/21 03:29:57;;;;;;;3.30;2.80;;;;;;;22.42;100.00;97874.38;4966872;28;20255;-68
2021/07/21 03:32:25;;;;;;;3.90;3.03;;;;;;;22.41;100.00;97875.19;4967640;28;20238;-65
2021/07/21 03:34:51;;;;;;;3.40;3.10;;;;;;;22.41;100.00;97874.34;4966829;28;20214;-65
2021/07/21 03:37:19;;;;;;;3.27;2.93;;;;;;;22.40;100.00;97878.56;4958458;28;20242;-67
2021/07/21 03:39:52;;;;;;;3.03;2.83;;;;;;;22.41;100.00;97875.19;4965856;28;20255;-67
2021/07/21 03:42:19;;;;;;;3.40;3.10;;;;;;;22.20;100.00;97840.38;4951408;28;20246;-65
2021/07/21 03:44:45;;;;;;;3.33;3.03;;;;;;;22.42;100.00;97884.63;4950647;28;20713;-65
2021/07/21 03:47:14;;;;;;;2.90;2.70;;;;;;;22.42;100.00;97884.63;4967771;28;20669;-64
2021/07/21 03:49:41;;;;;;;3.17;2.97;;;;;;;22.35;100.00;97869.03;4965867;28;20270;-65
2021/07/21 03:52:08;;;;;;;3.33;3.03;;;;;;;22.24;100.00;97855.88;4950411;28;20611;-65
2021/07/21 03:54:36;;;;;;;3.30;3.00;;;;;;;22.41;100.00;97895.66;4950203;28;20287;-65
2021/07/21 03:57:03;;;;;;;3.27;2.97;;;;;;;22.42;100.00;97892.31;4967391;28;20258;-67
2021/07/21 03:59:30;;;;;;;3.37;3.10;;;;;;;22.37;100.00;97883.59;4966173;28;20791;-66
2021/07/21 04:01:57;;;;;;;3.27;2.97;;;;;;;22.41;100.00;97889.69;4966325;28;20242;-65
2021/07/21 04:04:23;;;;;;;3.33;3.00;;;;;;;22.42;100.00;97899.09;4966640;28;20274;-66
2021/07/21 04:06:50;;;;;;;2.87;2.67;;;;;;;22.42;100.00;97900.00;4966074;28;20283;-66
2021/07/21 04:09:19;;;;;;;3.53;3.23;;;;;;;22.42;100.00;97900.00;4950298;28;20310;-65
2021/07/21 04:11:46;;;;;;;3.40;3.10;;;;;;;22.42;100.00;97901.66;4969423;28;20930;-66
2021/07/21 04:14:13;;;;;;;3.30;3.00;;;;;;;22.42;100.00;97901.66;4970040;28;20654;-65
2021/07/21 04:16:41;;;;;;;3.50;3.20;;;;;;;22.25;100.00;97877.22;4969289;28;20227;-65
2021/07/21 04:19:09;;;;;;;3.40;3.10;;;;;;;22.42;100.00;97905.13;4969144;28;20242;-65
2021/07/21 04:21:36;;;;;;;3.30;3.00;;;;;;;22.43;100.00;97905.97;4969946;28;20302;-66
2021/07/21 04:24:03;;;;;;;4.30;2.80;;;;;;;22.42;100.00;97906.78;4953220;28;20242;-66
2021/07/21 04:26:32;;;;;;;3.30;3.00;;;;;;;22.38;100.00;97907.53;4969215;28;20238;-63
2021/07/21 04:28:59;;;;;;;3.20;2.90;;;;;;;22.43;100.00;97917.09;4952684;28;20670;-65
2021/07/21 04:31:28;;;;;;;3.33;2.90;;;;;;;22.43;100.00;97909.41;4969449;28;20236;-67
2021/07/21 04:33:56;;;;;;;3.10;2.90;;;;;;;22.44;100.00;97917.97;4968975;28;20286;-67
2021/07/21 04:36:23;;;;;;;3.60;3.30;;;;;;;22.44;100.00;97923.94;4969436;28;20289;-65
2021/07/21 04:38:50;;;;;;;3.30;3.00;;;;;;;22.44;100.00;97915.41;4957834;28;20299;-66
2021/07/21 04:41:16;;;;;;;3.37;3.07;;;;;;;22.45;100.00;97919.69;4968875;28;20302;-65
2021/07/21 04:43:43;;;;;;;3.10;2.87;;;;;;;22.45;100.00;97912.00;4968689;28;20243;-66
2021/07/21 04:46:11;;;;;;;3.47;3.17;;;;;;;21.33;100.00;97746.19;4969560;28;20246;-65
2021/07/21 04:48:38;;;;;;;3.67;3.37;;;;;;;22.40;100.00;97911.88;4968796;28;20287;-66
2021/07/21 04:51:06;;;;;;;3.83;3.53;;;;;;;22.39;100.00;97905.00;4969498;28;20259;-65
2021/07/21 04:53:33;;;;;;;3.67;3.37;;;;;;;22.45;100.00;97917.13;4968441;28;20291;-66
2021/07/21 04:55:59;;;;;;;4.03;3.63;;;;;;;22.45;100.00;97912.91;4964495;28;20996;-65
2021/07/21 04:58:26;;;;;;;4.00;3.70;;;;;;;22.45;100.00;97918.00;4969608;28;20235;-65
2021/07/21 05:00:53;;;;;;;4.17;3.77;;;;;;;22.42;100.00;97919.59;4969796;28;20294;-65
2021/07/21 05:03:23;;;;;;;4.03;3.63;;;;;;;22.42;100.00;97912.78;4952909;28;20204;-65
2021/07/21 05:05:49;;;;;;;3.90;3.50;;;;;;;22.46;100.00;97919.75;4968686;28;20199;-67
2021/07/21 05:08:16;;;;;;;3.70;3.40;;;;;;;22.42;100.00;97920.47;4966351;28;20266;-66
2021/07/21 05:10:45;;;;;;;3.87;3.57;;;;;;;22.49;100.00;97931.75;4968499;28;20658;-65
2021/07/21 05:13:11;;;;;;;4.47;4.07;;;;;;;22.48;100.00;97928.34;4968800;28;20242;-65
2021/07/21 05:15:44;;;;;;;4.20;3.80;;;;;;;22.43;100.00;97926.44;4968247;28;20223;-66
2021/07/21 05:18:11;;;;;;;4.97;4.50;;;;;;;22.49;100.00;97940.34;4967638;28;20237;-66
2021/07/21 05:20:38;;;;;;;5.20;4.70;;;;;;;22.49;100.00;97940.34;4965632;28;20279;-66
2021/07/21 05:23:05;;;;;;;5.63;5.07;;;;;;;22.50;100.00;97944.66;4964894;28;20239;-67
2021/07/21 05:25:31;;;;;;;6.80;5.07;;;;;;;22.51;100.00;97940.41;4970150;28;20645;-65
2021/07/21 05:27:58;;;;;;;6.47;5.50;;;;;;;22.51;100.00;97948.09;4969217;28;20212;-65
2021/07/21 05:30:25;;;;;;;6.20;5.60;;;;;;;22.51;100.00;97943.84;4968253;28;20310;-65
2021/07/21 05:32:51;;;;;;;7.83;6.50;;;;;;;22.52;100.00;97944.69;4969813;28;20302;-65
2021/07/21 05:35:18;;;;;;;6.63;5.80;;;;;;;22.53;100.00;97949.03;4968945;28;20242;-66
2021/07/21 05:37:44;;;;;;;10.00;7.27;;;;;;;22.52;100.00;97953.28;4969489;28;20246;-65
2021/07/21 05:40:11;;;;;;;7.60;6.43;;;;;;;22.52;100.00;97953.28;4969551;28;20334;-66
2021/07/21 05:42:37;;;;;;;7.07;6.20;;;;;;;22.51;100.00;97956.66;4966484;28;20239;-65
2021/07/21 05:45:04;;;;;;;6.97;6.27;;;;;;;22.50;100.00;97944.66;4969410;28;20941;-67
2021/07/21 05:47:31;;;;;;;10.07;7.07;;;;;;;22.49;100.00;97952.25;4969717;28;20239;-62
2021/07/21 05:49:58;;;;;;;8.73;7.00;;;;;;;22.48;100.00;97955.66;4969768;28;20310;-68
2021/07/21 05:52:24;;;;;;;10.20;7.03;;;;;;;22.47;100.00;97948.81;4969760;28;20779;-65
2021/07/21 05:54:51;;;;;;;8.03;7.23;;;;;;;22.48;100.00;97960.78;4969303;28;20239;-67
2021/07/21 05:57:17;;;;;;;8.50;7.60;;;;;;;22.48;100.00;97958.22;4969538;28;20266;-65
2021/07/21 05:59:44;;;;;;;11.03;8.13;;;;;;;22.49;100.00;97962.50;4967160;28;20311;-67
2021/07/21 06:02:10;;;;;;;9.40;8.23;;;;;;;22.48;100.00;97955.66;4968301;28;20199;-65
2021/07/21 06:04:40;;;;;;;9.13;8.23;;;;;;;22.48;100.00;97959.09;4965410;28;20235;-66
2021/07/21 06:07:08;;;;;;;10.43;8.40;;;;;;;22.48;100.00;97959.09;4968015;28;20203;-65
2021/07/21 06:09:35;;;;;;;10.77;8.70;;;;;;;22.47;100.00;97962.44;4968409;28;20259;-66
2021/07/21 06:12:02;;;;;;;12.20;8.73;;;;;;;22.48;100.00;97963.34;4964638;28;20204;-63
2021/07/21 06:14:29;;;;;;;12.33;8.93;;;;;;;22.47;100.00;97967.56;4968427;28;20235;-66
2021/07/21 06:16:56;;;;;;;10.50;9.23;;;;;;;22.47;100.00;97965.00;4968533;28;20231;-67
2021/07/21 06:19:23;;;;;;;12.77;9.40;;;;;;;22.46;100.00;97965.84;4968267;28;20315;-66
2021/07/21 06:21:50;;;;;;;10.67;9.03;;;;;;;22.46;100.00;97965.84;4968326;28;20246;-66
2021/07/21 06:24:20;;;;;;;15.33;10.20;;;;;;;22.47;100.00;97969.28;4967836;28;20751;-67
2021/07/21 06:26:47;;;;;;;13.60;9.93;;;;;;;22.46;100.00;97970.97;4967883;28;20290;-66
2021/07/21 06:29:14;;;;;;;11.00;8.63;;;;;;;22.46;100.00;97972.66;4968850;28;20257;-64
2021/07/21 06:31:40;;;;;;;13.00;10.00;;;;;;;22.45;100.00;97979.47;4968456;28;20242;-66
2021/07/21 06:34:07;;;;;;;10.87;9.23;;;;;;;22.46;100.00;97982.91;4967875;28;20294;-64
2021/07/21 06:36:33;;;;;;;10.73;9.63;;;;;;;22.45;100.00;97987.16;4964885;28;20285;-67
2021/07/21 06:39:00;;;;;;;11.10;9.20;;;;;;;22.45;100.00;97984.59;4967308;28;20286;-65
2021/07/21 06:41:27;;;;;;;13.07;9.77;;;;;;;22.44;100.00;97987.97;4969418;28;20223;-66
2021/07/21 06:43:54;;;;;;;10.27;9.20;;;;;;;22.45;100.00;97991.41;4967596;28;20300;-66
2021/07/21 06:46:21;;;;;;;11.70;9.40;;;;;;;22.44;100.00;97999.91;4966077;28;20204;-67
2021/07/21 06:48:47;;;;;;;11.00;9.90;;;;;;;22.44;100.00;98002.50;4946773;28;20678;-65
2021/07/21 06:51:14;;;;;;;23.97;10.60;;;;;;;22.44;100.00;98005.03;4966319;28;20287;-66
2021/07/21 06:53:40;;;;;;;13.27;10.10;;;;;;;22.44;100.00;97999.91;4967335;28;20924;-67
2021/07/21 06:56:07;;;;;;;12.67;9.73;;;;;;;22.43;100.00;98004.16;4949799;28;20642;-65
2021/07/21 06:58:34;;;;;;;12.87;9.73;;;;;;;22.43;100.00;98001.59;4967615;28;20227;-67
2021/07/21 07:01:00;;;;;;;12.00;9.13;;;;;;;22.43;100.00;98006.72;4963262;28;20315;-66
2021/07/21 07:03:27;;;;;;;10.57;9.47;;;;;;;22.43;100.00;98003.28;4966663;28;20200;-66
2021/07/21 07:05:54;;;;;;;10.30;9.30;;;;;;;22.43;100.00;98008.41;4964484;28;20403;-65
2021/07/21 07:08:21;;;;;;;9.83;8.80;;;;;;;22.43;100.00;98010.97;4966720;28;20302;-65
2021/07/21 07:10:47;;;;;;;10.80;9.03;;;;;;;22.43;100.00;98013.53;4964885;28;20261;-66
2021/07/21 07:13:14;;;;;;;15.13;8.93;;;;;;;22.42;100.00;98010.13;4965247;28;20298;-65
2021/07/21 07:15:40;;;;;;;10.40;8.97;;;;;;;22.42;100.00;98011.78;4967357;28;20627;-66
2021/07/21 07:18:14;;;;;;;11.50;9.30;;;;;;;22.42;100.00;98011.78;4968547;28;20316;-65
2021/07/21 07:20:44;;;;;;;12.03;9.03;;;;;;;22.41;100.00;98008.34;4962812;28;21136;-65
2021/07/21 07:23:12;;;;;;;10.87;9.23;;;;;;;22.38;100.00;98007.41;4967736;28;20234;-64
2021/07/21 07:25:39;;;;;;;12.23;8.60;;;;;;;22.36;100.00;98004.78;4962637;28;20661;-67
2021/07/21 07:28:05;;;;;;;12.00;9.07;;;;;;;22.37;100.00;98003.97;4965012;28;20227;-65
2021/07/21 07:30:32;;;;;;;10.70;8.77;;;;;;;22.45;100.00;98014.47;4964368;28;20277;-65
2021/07/21 07:32:59;;;;;;;9.33;8.37;;;;;;;22.45;100.00;98019.59;4960712;28;20286;-66
2021/07/21 07:35:26;;;;;;;12.90;8.60;;;;;;;22.45;100.00;98020.47;4966617;28;20286;-65
2021/07/21 07:37:56;;;;;;;9.77;8.60;;;;;;;21.39;100.00;97831.66;4966390;28;20974;-65
2021/07/21 07:40:22;;;;;;;14.70;8.70;;;;;;;22.45;100.00;98010.22;4965078;28;20331;-67
2021/07/21 07:42:49;;;;;;;11.90;9.13;;;;;;;22.44;100.00;98010.16;4964823;28;20207;-66
2021/07/21 07:45:15;;;;;;;10.93;8.53;;;;;;;22.44;100.00;98008.47;4967156;28;20242;-66
2021/07/21 07:47:43;;;;;;;11.40;8.63;;;;;;;22.43;100.00;98004.16;4969672;28;20231;-64
2021/07/21 07:50:10;;;;;;;9.70;8.60;;;;;;;22.43;100.00;98005.84;4969419;28;20310;-65
2021/07/21 07:52:37;;;;;;;9.43;8.43;;;;;;;22.43;100.00;98009.28;4968661;28;20286;-66
2021/07/21 07:55:04;;;;;;;9.63;8.63;;;;;;;22.42;100.00;98007.56;4969436;28;20294;-66
2021/07/21 07:57:31;;;;;;;9.13;8.17;;;;;;;22.18;100.00;97959.75;4969352;28;20315;-65
2021/07/21 07:59:57;;;;;;;9.77;8.77;;;;;;;22.43;100.00;97995.59;4967958;28;20649;-64
2021/07/21 08:02:24;;;;;;;9.30;8.40;;;;;;;22.44;100.00;98007.59;4969710;28;20290;-65
2021/07/21 08:04:50;;;;;;;9.83;8.40;;;;;;;22.44;100.00;97994.81;4969591;28;20207;-67
2021/07/21 08:07:17;;;;;;;10.70;9.00;;;;;;;22.44;100.00;97998.22;4968095;28;20204;-65
2021/07/21 08:09:44;;;;;;;10.37;8.60;;;;;;;22.44;100.00;97997.38;4968791;28;20764;-64
2021/07/21 08:12:10;;;;;;;11.60;8.80;;;;;;;22.45;100.00;97992.28;4970017;28;20235;-65
2021/07/21 08:14:37;;;;;;;12.73;8.60;;;;;;;22.45;100.00;97999.97;4970693;28;20207;-64
2021/07/21 08:17:04;;;;;;;10.10;8.97;;;;;;;22.11;100.00;97937.34;4969023;28;20251;-64
2021/07/21 08:19:31;;;;;;;10.00;8.60;;;;;;;22.35;100.00;97979.97;4969359;28;21544;-65
2021/07/21 08:21:57;;;;;;;9.13;8.10;;;;;;;22.44;100.00;97997.38;4967585;28;20634;-64
2021/07/21 08:24:24;;;;;;;10.37;8.27;;;;;;;22.43;100.00;98004.16;4969060;28;20243;-65
2021/07/21 08:26:50;;;;;;;10.33;8.63;;;;;;;22.43;100.00;98000.72;4968736;28;20302;-66
2021/07/21 08:29:35;;;;;;;8.90;8.00;;;;;;;22.41;100.00;98000.66;4968260;28;20242;-66
2021/07/21 08:32:02;;;;;;;9.40;8.17;;;;;;;22.41;100.00;98003.22;4966534;28;20824;-65
2021/07/21 08:34:29;;;;;;;12.03;8.97;;;;;;;22.41;100.00;98003.22;4968118;28;20323;-67
2021/07/21 08:36:55;;;;;;;9.30;8.10;;;;;;;22.41;100.00;97993.00;4968988;28;20231;-64
2021/07/21 08:39:22;;;;;;;10.43;8.63;;;;;;;22.42;100.00;98004.13;4968230;28;20255;-65
2021/07/21 08:41:48;;;;;;;9.60;8.17;;;;;;;22.27;100.00;97980.56;4968855;28;20567;-65
2021/07/21 08:44:15;;;;;;;10.77;8.20;;;;;;;22.36;100.00;97991.09;4955339;28;20316;-66
2021/07/21 08:46:42;;;;;;;11.63;8.60;;;;;;;22.42;100.00;97999.00;4965273;28;20627;-64
2021/07/21 08:49:09;;;;;;;11.33;8.43;;;;;;;22.42;100.00;97997.31;4968711;28;20610;-68
2021/07/21 08:51:36;;;;;;;8.90;8.00;;;;;;;22.43;100.00;98000.72;4969019;28;20684;-64
2021/07/21 08:54:05;;;;;;;10.73;8.63;;;;;;;22.42;100.00;97996.44;4966891;28;20211;-64
2021/07/21 08:56:32;;;;;;;11.17;8.33;;;;;;;22.23;100.00;97973.59;4965882;28;20263;-64
2021/07/21 08:59:01;;;;;;;10.50;8.40;;;;;;;22.41;100.00;97997.25;4965990;28;20262;-62
2021/07/21 09:01:28;;;;;;;9.50;7.97;;;;;;;22.41;100.00;98002.38;4967714;28;20255;-66
2021/07/21 09:03:55;;;;;;;12.13;8.47;;;;;;;22.33;100.00;97993.56;4967845;28;20209;-66
2021/07/21 09:06:22;;;;;;;10.00;8.40;;;;;;;22.41;100.00;98005.78;4951470;28;20303;-65
2021/07/21 09:08:48;;;;;;;9.20;7.80;;;;;;;22.40;100.00;97996.38;4968822;28;20270;-65
2021/07/21 09:11:15;;;;;;;9.23;7.70;;;;;;;22.39;100.00;98004.00;4969347;28;20204;-65
2021/07/21 09:13:41;;;;;;;9.70;8.50;;;;;;;22.39;100.00;98029.63;4967194;28;20207;-64
2021/07/21 09:16:08;;;;;;;8.67;7.87;;;;;;;22.37;100.00;98000.53;4968912;28;20587;-64
2021/07/21 09:18:49;;;;;;;9.27;7.73;;;;;;;22.36;100.00;98007.34;4966319;28;20282;-66
2021/07/21 09:21:17;;;;;;;10.03;8.47;;;;;;;22.36;100.00;97996.22;4966243;28;20207;-66
2021/07/21 09:23:48;;;;;;;9.13;7.80;;;;;;;22.37;100.00;97995.41;4969104;28;20414;-65
2021/07/21 09:26:39;;;;;;;9.97;8.03;;;;;;;22.36;100.00;97997.09;4968299;28;20199;-66
2021/07/21 09:29:05;;;;;;;8.80;7.73;;;;;;;22.37;100.00;97993.72;4963316;28;20314;-65
2021/07/21 09:31:39;;;;;;;9.23;8.30;;;;;;;22.36;100.00;97998.78;4968811;28;20281;-64
2021/07/21 09:34:16;;;;;;;11.40;8.03;;;;;;;22.36;100.00;97991.09;4964697;28;20208;-64
2021/07/21 09:36:43;;;;;;;9.73;7.43;;;;;;;22.36;100.00;97993.66;4965173;28;20203;-65
2021/07/21 09:39:11;;;;;;;11.27;7.80;;;;;;;22.11;100.00;97956.13;4967837;28;20262;-66
2021/07/21 09:41:39;;;;;;;8.47;7.57;;;;;;;22.36;100.00;97992.00;4968333;28;20281;-67
2021/07/21 09:44:05;;;;;;;9.23;7.83;;;;;;;22.36;100.00;97992.00;4968542;28;20203;-65
2021/07/21 09:46:38;;;;;;;9.53;7.73;;;;;;;22.36;100.00;97996.22;4968013;28;20204;-65
2021/07/21 09:49:04;;;;;;;9.97;8.20;;;;;;;22.36;100.00;97993.66;4964097;28;20238;-65
2021/07/21 09:51:33;;;;;;;9.63;8.50;;;;;;;22.36;100.00;97991.09;4949706;28;20291;-65
2021/07/21 09:54:19;;;;;;;8.23;7.40;;;;;;;22.36;100.00;97994.56;4963804;28;20270;-65
2021/07/21 09:56:48;;;;;;;10.07;7.73;;;;;;;22.36;100.00;97999.66;4965843;28;20233;-66
2021/07/21 09:59:26;;;;;;;8.70;7.80;;;;;;;22.36;100.00;97988.53;4966882;28;20314;-65
2021/07/21 10:01:52;;;;;;;8.00;7.13;;;;;;;22.30;100.00;97983.22;4966268;28;20202;-65
2021/07/21 10:04:37;;;;;;;8.13;7.33;;;;;;;22.33;100.00;97991.88;4935289;28;20250;-64
2021/07/21 10:07:24;;;;;;;8.20;7.40;;;;;;;22.33;100.00;97993.56;4967222;28;20732;-66
2021/07/21 10:09:51;;;;;;;8.90;7.77;;;;;;;22.33;100.00;97996.13;4966449;28;20235;-63
2021/07/21 10:12:20;;;;;;;8.67;7.77;;;;;;;22.33;100.00;97996.13;4968607;28;20203;-65
2021/07/21 10:15:18;;;;;;;9.80;7.50;;;;;;;22.03;100.00;97938.78;4968279;28;20303;-64
2021/07/21 10:17:45;;;;;;;9.77;7.20;;;;;;;22.14;100.00;97956.22;4964465;28;20266;-65
2021/07/21 10:20:12;;;;;;;9.60;7.50;;;;;;;22.33;100.00;97980.75;4967500;28;20314;-66
2021/07/21 10:22:38;;;;;;;8.20;7.00;;;;;;;22.34;100.00;97982.50;4965886;28;20286;-65
2021/07/21 10:25:05;;;;;;;7.67;6.93;;;;;;;22.14;100.00;97945.97;4966011;28;20258;-66
2021/07/21 10:27:31;;;;;;;8.53;7.63;;;;;;;22.34;100.00;97985.94;4965954;28;20208;-67
2021/07/21 10:29:58;;;;;;;7.50;6.80;;;;;;;22.13;100.00;97949.38;4965943;28;20227;-65
2021/07/21 10:32:25;;;;;;;8.27;7.30;;;;;;;22.16;100.00;97951.16;4966540;28;20212;-65
2021/07/21 10:34:51;;;;;;;7.80;7.07;;;;;;;22.34;100.00;97977.38;4949210;28;20704;-63
2021/07/21 10:37:18;;;;;;;9.43;6.90;;;;;;;22.35;100.00;97979.13;4959288;28;20295;-66
2021/07/21 10:39:45;;;;;;;10.20;7.40;;;;;;;22.35;100.00;97981.69;4965403;28;20258;-67
2021/07/21 10:42:14;;;;;;;12.23;7.57;;;;;;;22.35;100.00;97984.25;4965798;28;20262;-63
2021/07/21 10:44:41;;;;;;;8.53;7.33;;;;;;;22.35;100.00;97974.00;4950051;28;20212;-63
2021/07/21 10:47:24;;;;;;;9.03;7.63;;;;;;;22.34;100.00;97968.00;4966896;28;20204;-66
2021/07/21 10:49:55;;;;;;;9.57;7.40;;;;;;;22.35;100.00;97966.31;4965035;28;20678;-65
2021/07/21 10:55:16;;;;;;;9.17;7.30;;;;;;;22.06;100.00;97919.28;4965706;28;20231;-65
2021/07/21 11:00:37;;;;;;;10.93;7.30;;;;;;;22.32;100.00;97973.91;4965115;28;20310;-66
2021/07/21 11:03:16;;;;;;;8.33;7.27;;;;;;;22.31;100.00;97973.03;4967348;28;20288;-65
2021/07/21 11:05:44;;;;;;;7.60;6.80;;;;;;;22.32;100.00;97973.91;4966863;28;20200;-65
2021/07/21 11:08:20;;;;;;;12.77;7.23;;;;;;;22.33;100.00;97962.84;4967027;28;20227;-66
2021/07/21 11:10:48;;;;;;;8.37;7.00;;;;;;;22.33;100.00;97963.72;4965523;28;20261;-65
2021/07/21 11:13:27;;;;;;;11.27;7.00;;;;;;;22.34;100.00;97960.31;4966959;28;20203;-65
2021/07/21 11:15:54;;;;;;;12.27;7.50;;;;;;;22.35;100.00;97956.94;4966685;28;20313;-66
2021/07/21 11:18:24;;;;;;;10.47;8.03;;;;;;;22.36;100.00;97961.25;4966264;28;20227;-66
2021/07/21 11:21:13;;;;;;;7.90;7.10;;;;;;;22.36;100.00;97956.13;4965978;28;20703;-65
2021/07/21 11:23:59;;;;;;;7.80;7.00;;;;;;;22.37;100.00;97950.19;4964172;28;20204;-66
2021/07/21 11:26:30;;;;;;;8.67;7.40;;;;;;;22.40;100.00;97955.41;4967273;28;20254;-65
2021/07/21 11:28:57;;;;;;;8.20;7.40;;;;;;;22.40;100.00;97955.41;4965738;28;20665;-65
2021/07/21 11:31:46;;;;;;;9.13;7.43;;;;;;;22.40;100.00;97955.41;4966415;28;20211;-67
2021/07/21 11:34:13;;;;;;;8.40;7.40;;;;;;;22.41;100.00;97948.59;4966442;28;20243;-66
2021/07/21 11:36:39;;;;;;;10.43;7.57;;;;;;;22.42;100.00;97946.09;4966329;28;20207;-65